sensor_id;sensor_type;location;lat;lon;timestamp;temperature;humidity
4934;DHT22;2482;49.154;8.254;2023-06-26T00:00:04;19.30;99.90
4934;DHT22;2482;49.154;8.254;2023-06-26T00:02:32;19.30;99.90
4934;DHT22;2482;49.154;8.254;2023-06-26T00:05:00;19.40;99.90
4934;DHT22;2482;49.154;8.254;2023-06-26T00:07:29;19.40;99.90
4934;DHT22;2482;49.154;8.254;2023-06-26T00:09:57;19.50;99.90
4934;DHT22;2482;49.154;8.254;2023-06-26T00:12:26;19.40;99.90
4934;DHT22;2482;49.154;8.254;2023-06-26T00:14:53;19.30;99.90
4934;DHT22;2482;49.154;8.254;2023-06-26T00:17:20;19.20;99.90
4934;DHT22;2482;49.154;8.254;2023-06-26T00:19:48;19.10;99.90
4934;DHT22;2482;49.154;8.254;2023-06-26T00:22:15;18.90;99.90
4934;DHT22;2482;49.154;8.254;2023-06-26T00:24:42;19.10;99.90
4934;DHT22;2482;49.154;8.254;2023-06-26T00:27:11;19.00;99.90
4934;DHT22;2482;49.154;8.254;2023-06-26T00:29:38;18.80;99.90
4934;DHT22;2482;49.154;8.254;2023-06-26T00:32:06;18.60;99.90
4934;DHT22;2482;49.154;8.254;2023-06-26T00:34:33;18.60;99.90
4934;DHT22;2482;49.154;8.254;2023-06-26T00:37:01;18.50;99.90
4934;DHT22;2482;49.154;8.254;2023-06-26T00:39:28;18.50;99.90
4934;DHT22;2482;49.154;8.254;2023-06-26T00:41:55;18.40;99.90
4934;DHT22;2482;49.154;8.254;2023-06-26T00:44:22;18.40;99.90
4934;DHT22;2482;49.154;8.254;2023-06-26T00:46:49;18.30;99.90
4934;DHT22;2482;49.154;8.254;2023-06-26T00:49:17;18.20;99.90
4934;DHT22;2482;49.154;8.254;2023-06-26T00:51:44;17.90;99.90
4934;DHT22;2482;49.154;8.254;2023-06-26T00:54:11;17.60;99.90
4934;DHT22;2482;49.154;8.254;2023-06-26T00:56:38;17.70;99.90
4934;DHT22;2482;49.154;8.254;2023-06-26T00:59:06;17.90;99.90
4934;DHT22;2482;49.154;8.254;2023-06-26T01:01:33;18.10;99.90
4934;DHT22;2482;49.154;8.254;2023-06-26T01:04:00;18.10;99.90
4934;DHT22;2482;49.154;8.254;2023-06-26T01:06:28;18.10;99.90
4934;DHT22;2482;49.154;8.254;2023-06-26T01:09:02;18.00;99.90
4934;DHT22;2482;49.154;8.254;2023-06-26T01:11:30;18.10;99.90
4934;DHT22;2482;49.154;8.254;2023-06-26T01:13:59;18.00;99.90
4934;DHT22;2482;49.154;8.254;2023-06-26T01:16:29;18.10;99.90
4934;DHT22;2482;49.154;8.254;2023-06-26T01:18:56;18.30;99.90
4934;DHT22;2482;49.154;8.254;2023-06-26T01:21:24;18.20;99.90
4934;DHT22;2482;49.154;8.254;2023-06-26T01:24:07;18.20;99.90
4934;DHT22;2482;49.154;8.254;2023-06-26T01:26:41;18.00;99.90
4934;DHT22;2482;49.154;8.254;2023-06-26T01:29:12;17.90;99.90
4934;DHT22;2482;49.154;8.254;2023-06-26T01:31:40;17.90;99.90
4934;DHT22;2482;49.154;8.254;2023-06-26T01:34:07;17.80;99.90
4934;DHT22;2482;49.154;8.254;2023-06-26T01:36:34;17.80;99.90
4934;DHT22;2482;49.154;8.254;2023-06-26T01:39:01;17.80;99.90
4934;DHT22;2482;49.154;8.254;2023-06-26T01:41:28;17.70;99.90
4934;DHT22;2482;49.154;8.254;2023-06-26T01:46:59;17.50;99.90
4934;DHT22;2482;49.154;8.254;2023-06-26T01:58:06;17.50;99.90
4934;DHT22;2482;49.154;8.254;2023-06-26T02:00:34;17.40;99.90
4934;DHT22;2482;49.154;8.254;2023-06-26T02:03:01;17.50;99.90
4934;DHT22;2482;49.154;8.254;2023-06-26T02:05:29;17.60;99.90
4934;DHT22;2482;49.154;8.254;2023-06-26T02:07:57;17.60;99.90
4934;DHT22;2482;49.154;8.254;2023-06-26T02:10:25;17.50;99.90
4934;DHT22;2482;49.154;8.254;2023-06-26T02:12:52;17.60;99.90
4934;DHT22;2482;49.154;8.254;2023-06-26T02:15:19;17.50;99.90
4934;DHT22;2482;49.154;8.254;2023-06-26T02:17:45;17.50;99.90
4934;DHT22;2482;49.154;8.254;2023-06-26T02:20:15;17.50;99.90
4934;DHT22;2482;49.154;8.254;2023-06-26T02:22:42;17.50;99.90
4934;DHT22;2482;49.154;8.254;2023-06-26T02:25:10;17.60;99.90
4934;DHT22;2482;49.154;8.254;2023-06-26T02:27:39;17.70;99.90
4934;DHT22;2482;49.154;8.254;2023-06-26T02:30:07;17.50;99.90
4934;DHT22;2482;49.154;8.254;2023-06-26T02:32:34;17.50;99.90
4934;DHT22;2482;49.154;8.254;2023-06-26T02:35:02;17.40;99.90
4934;DHT22;2482;49.154;8.254;2023-06-26T02:37:29;17.40;99.90
4934;DHT22;2482;49.154;8.254;2023-06-26T02:39:56;17.40;99.90
4934;DHT22;2482;49.154;8.254;2023-06-26T02:42:23;17.40;99.90
4934;DHT22;2482;49.154;8.254;2023-06-26T02:44:50;17.40;99.90
4934;DHT22;2482;49.154;8.254;2023-06-26T02:47:17;17.10;99.90
4934;DHT22;2482;49.154;8.254;2023-06-26T02:49:44;16.90;99.90
4934;DHT22;2482;49.154;8.254;2023-06-26T02:52:11;16.80;99.90
4934;DHT22;2482;49.154;8.254;2023-06-26T02:54:38;16.90;99.90
4934;DHT22;2482;49.154;8.254;2023-06-26T02:57:05;16.90;99.90
4934;DHT22;2482;49.154;8.254;2023-06-26T02:59:32;16.90;99.90
4934;DHT22;2482;49.154;8.254;2023-06-26T03:01:59;17.00;99.90
4934;DHT22;2482;49.154;8.254;2023-06-26T03:04:26;17.00;99.90
4934;DHT22;2482;49.154;8.254;2023-06-26T03:06:53;17.00;99.90
4934;DHT22;2482;49.154;8.254;2023-06-26T03:09:21;16.80;99.90
4934;DHT22;2482;49.154;8.254;2023-06-26T03:11:48;16.80;99.90
4934;DHT22;2482;49.154;8.254;2023-06-26T03:14:15;17.00;99.90
4934;DHT22;2482;49.154;8.254;2023-06-26T03:16:43;17.20;99.90
4934;DHT22;2482;49.154;8.254;2023-06-26T03:19:10;17.20;99.90
4934;DHT22;2482;49.154;8.254;2023-06-26T03:21:37;17.40;99.90
4934;DHT22;2482;49.154;8.254;2023-06-26T03:24:04;17.40;99.90
4934;DHT22;2482;49.154;8.254;2023-06-26T03:26:32;17.30;99.90
4934;DHT22;2482;49.154;8.254;2023-06-26T03:29:00;17.30;99.90
4934;DHT22;2482;49.154;8.254;2023-06-26T03:31:27;17.30;99.90
4934;DHT22;2482;49.154;8.254;2023-06-26T03:33:54;17.20;99.90
4934;DHT22;2482;49.154;8.254;2023-06-26T03:36:21;17.30;99.90
4934;DHT22;2482;49.154;8.254;2023-06-26T03:38:48;17.40;99.90
4934;DHT22;2482;49.154;8.254;2023-06-26T03:41:15;17.40;99.90
4934;DHT22;2482;49.154;8.254;2023-06-26T03:43:42;17.50;99.90
4934;DHT22;2482;49.154;8.254;2023-06-26T03:46:09;17.70;99.90
4934;DHT22;2482;49.154;8.254;2023-06-26T03:48:36;17.70;99.90
4934;DHT22;2482;49.154;8.254;2023-06-26T03:51:04;17.90;99.90
4934;DHT22;2482;49.154;8.254;2023-06-26T03:53:33;17.90;99.90
4934;DHT22;2482;49.154;8.254;2023-06-26T03:56:01;17.90;99.90
4934;DHT22;2482;49.154;8.254;2023-06-26T03:58:28;18.00;99.90
4934;DHT22;2482;49.154;8.254;2023-06-26T04:00:55;18.00;99.90
4934;DHT22;2482;49.154;8.254;2023-06-26T04:03:22;18.10;99.90
4934;DHT22;2482;49.154;8.254;2023-06-26T04:05:50;18.30;99.90
4934;DHT22;2482;49.154;8.254;2023-06-26T04:08:17;18.50;99.90
4934;DHT22;2482;49.154;8.254;2023-06-26T04:10:44;18.90;99.90
4934;DHT22;2482;49.154;8.254;2023-06-26T04:13:12;19.10;99.90
4934;DHT22;2482;49.154;8.254;2023-06-26T04:15:40;19.30;99.90
4934;DHT22;2482;49.154;8.254;2023-06-26T04:18:06;19.30;99.90
4934;DHT22;2482;49.154;8.254;2023-06-26T04:20:39;19.30;99.90
4934;DHT22;2482;49.154;8.254;2023-06-26T04:23:06;19.40;99.90
4934;DHT22;2482;49.154;8.254;2023-06-26T04:25:33;19.40;99.90
4934;DHT22;2482;49.154;8.254;2023-06-26T04:28:00;19.40;99.90
4934;DHT22;2482;49.154;8.254;2023-06-26T04:30:27;19.20;99.90
4934;DHT22;2482;49.154;8.254;2023-06-26T04:32:54;19.40;99.90
4934;DHT22;2482;49.154;8.254;2023-06-26T04:35:25;19.40;99.90
4934;DHT22;2482;49.154;8.254;2023-06-26T04:37:52;19.70;99.90
4934;DHT22;2482;49.154;8.254;2023-06-26T04:40:19;19.80;99.90
4934;DHT22;2482;49.154;8.254;2023-06-26T04:42:46;19.80;99.90
4934;DHT22;2482;49.154;8.254;2023-06-26T04:45:13;19.80;99.90
4934;DHT22;2482;49.154;8.254;2023-06-26T04:47:40;20.00;99.90
4934;DHT22;2482;49.154;8.254;2023-06-26T04:50:07;20.10;99.90
4934;DHT22;2482;49.154;8.254;2023-06-26T04:52:36;20.20;99.90
4934;DHT22;2482;49.154;8.254;2023-06-26T04:55:04;20.20;99.90
4934;DHT22;2482;49.154;8.254;2023-06-26T04:57:31;20.20;99.90
4934;DHT22;2482;49.154;8.254;2023-06-26T04:59:58;20.30;99.90
4934;DHT22;2482;49.154;8.254;2023-06-26T05:02:25;20.50;99.90
4934;DHT22;2482;49.154;8.254;2023-06-26T05:04:53;20.50;99.90
4934;DHT22;2482;49.154;8.254;2023-06-26T05:07:20;20.30;99.90
4934;DHT22;2482;49.154;8.254;2023-06-26T05:09:47;20.50;99.90
4934;DHT22;2482;49.154;8.254;2023-06-26T05:12:14;20.60;99.90
4934;DHT22;2482;49.154;8.254;2023-06-26T05:14:41;20.90;99.90
4934;DHT22;2482;49.154;8.254;2023-06-26T05:17:08;21.10;99.90
4934;DHT22;2482;49.154;8.254;2023-06-26T05:19:35;21.10;99.90
4934;DHT22;2482;49.154;8.254;2023-06-26T05:22:03;21.20;99.90
4934;DHT22;2482;49.154;8.254;2023-06-26T05:24:37;21.30;99.90
4934;DHT22;2482;49.154;8.254;2023-06-26T05:27:06;21.40;99.90
4934;DHT22;2482;49.154;8.254;2023-06-26T05:29:33;21.40;99.90
4934;DHT22;2482;49.154;8.254;2023-06-26T05:32:04;21.60;99.90
4934;DHT22;2482;49.154;8.254;2023-06-26T05:34:32;21.80;99.90
4934;DHT22;2482;49.154;8.254;2023-06-26T05:37:01;21.90;99.90
4934;DHT22;2482;49.154;8.254;2023-06-26T05:39:28;22.00;99.90
4934;DHT22;2482;49.154;8.254;2023-06-26T05:41:56;22.30;99.90
4934;DHT22;2482;49.154;8.254;2023-06-26T05:44:23;22.50;99.90
4934;DHT22;2482;49.154;8.254;2023-06-26T05:46:51;22.40;99.90
4934;DHT22;2482;49.154;8.254;2023-06-26T05:49:17;22.40;99.90
4934;DHT22;2482;49.154;8.254;2023-06-26T05:51:45;22.60;99.90
4934;DHT22;2482;49.154;8.254;2023-06-26T05:54:12;22.70;99.90
4934;DHT22;2482;49.154;8.254;2023-06-26T05:56:40;22.90;99.90
4934;DHT22;2482;49.154;8.254;2023-06-26T05:59:11;22.90;99.90
4934;DHT22;2482;49.154;8.254;2023-06-26T06:01:38;23.10;99.90
4934;DHT22;2482;49.154;8.254;2023-06-26T06:04:05;23.30;99.90
4934;DHT22;2482;49.154;8.254;2023-06-26T06:06:32;23.10;99.90
4934;DHT22;2482;49.154;8.254;2023-06-26T06:08:59;23.10;99.90
4934;DHT22;2482;49.154;8.254;2023-06-26T06:11:26;23.30;99.90
4934;DHT22;2482;49.154;8.254;2023-06-26T06:13:53;23.40;99.90
4934;DHT22;2482;49.154;8.254;2023-06-26T06:16:20;23.60;99.90
4934;DHT22;2482;49.154;8.254;2023-06-26T06:18:47;23.70;99.90
4934;DHT22;2482;49.154;8.254;2023-06-26T06:21:14;23.90;99.90
4934;DHT22;2482;49.154;8.254;2023-06-26T06:23:41;24.10;99.90
4934;DHT22;2482;49.154;8.254;2023-06-26T06:26:08;24.00;99.90
4934;DHT22;2482;49.154;8.254;2023-06-26T06:28:35;24.20;99.90
4934;DHT22;2482;49.154;8.254;2023-06-26T06:31:02;24.10;99.90
4934;DHT22;2482;49.154;8.254;2023-06-26T06:33:29;24.20;99.90
4934;DHT22;2482;49.154;8.254;2023-06-26T06:35:56;24.40;99.90
4934;DHT22;2482;49.154;8.254;2023-06-26T06:38:23;24.60;99.90
4934;DHT22;2482;49.154;8.254;2023-06-26T06:40:51;24.60;99.90
4934;DHT22;2482;49.154;8.254;2023-06-26T06:43:18;24.50;99.90
4934;DHT22;2482;49.154;8.254;2023-06-26T06:45:45;24.50;99.90
4934;DHT22;2482;49.154;8.254;2023-06-26T06:48:12;24.30;99.90
4934;DHT22;2482;49.154;8.254;2023-06-26T06:50:39;24.50;99.90
4934;DHT22;2482;49.154;8.254;2023-06-26T06:53:07;24.80;99.90
4934;DHT22;2482;49.154;8.254;2023-06-26T06:55:34;25.10;99.90
4934;DHT22;2482;49.154;8.254;2023-06-26T06:58:01;25.10;99.90
4934;DHT22;2482;49.154;8.254;2023-06-26T07:00:31;24.80;99.90
4934;DHT22;2482;49.154;8.254;2023-06-26T07:02:58;25.00;99.90
4934;DHT22;2482;49.154;8.254;2023-06-26T07:05:27;25.10;99.90
4934;DHT22;2482;49.154;8.254;2023-06-26T07:07:54;25.50;99.90
4934;DHT22;2482;49.154;8.254;2023-06-26T07:10:21;25.70;99.90
4934;DHT22;2482;49.154;8.254;2023-06-26T07:12:48;25.80;99.90
4934;DHT22;2482;49.154;8.254;2023-06-26T07:15:16;25.80;99.90
4934;DHT22;2482;49.154;8.254;2023-06-26T07:17:43;25.90;99.90
4934;DHT22;2482;49.154;8.254;2023-06-26T07:20:11;25.90;99.90
4934;DHT22;2482;49.154;8.254;2023-06-26T07:22:42;26.20;99.90
4934;DHT22;2482;49.154;8.254;2023-06-26T07:25:11;26.20;99.90
4934;DHT22;2482;49.154;8.254;2023-06-26T07:27:39;26.30;99.90
4934;DHT22;2482;49.154;8.254;2023-06-26T07:30:07;26.40;99.90
4934;DHT22;2482;49.154;8.254;2023-06-26T07:32:38;26.60;99.90
4934;DHT22;2482;49.154;8.254;2023-06-26T07:35:07;26.70;99.90
4934;DHT22;2482;49.154;8.254;2023-06-26T07:37:34;26.90;99.90
4934;DHT22;2482;49.154;8.254;2023-06-26T07:40:02;27.10;99.90
4934;DHT22;2482;49.154;8.254;2023-06-26T07:42:30;27.30;99.90
4934;DHT22;2482;49.154;8.254;2023-06-26T07:44:57;27.40;99.90
4934;DHT22;2482;49.154;8.254;2023-06-26T07:47:24;27.50;99.90
4934;DHT22;2482;49.154;8.254;2023-06-26T07:49:51;27.50;99.90
4934;DHT22;2482;49.154;8.254;2023-06-26T07:52:19;27.70;99.90
4934;DHT22;2482;49.154;8.254;2023-06-26T07:54:46;27.50;99.90
4934;DHT22;2482;49.154;8.254;2023-06-26T07:57:13;27.30;99.90
4934;DHT22;2482;49.154;8.254;2023-06-26T07:59:40;27.30;99.90
4934;DHT22;2482;49.154;8.254;2023-06-26T08:02:07;27.50;99.90
4934;DHT22;2482;49.154;8.254;2023-06-26T08:04:34;27.40;99.90
4934;DHT22;2482;49.154;8.254;2023-06-26T08:07:02;27.40;99.90
4934;DHT22;2482;49.154;8.254;2023-06-26T08:09:31;27.30;99.90
4934;DHT22;2482;49.154;8.254;2023-06-26T08:11:59;27.10;99.90
4934;DHT22;2482;49.154;8.254;2023-06-26T08:14:26;27.20;99.90
4934;DHT22;2482;49.154;8.254;2023-06-26T08:16:53;27.00;99.90
4934;DHT22;2482;49.154;8.254;2023-06-26T08:19:20;26.90;99.90
4934;DHT22;2482;49.154;8.254;2023-06-26T08:21:47;27.20;99.90
4934;DHT22;2482;49.154;8.254;2023-06-26T08:24:14;27.20;99.90
4934;DHT22;2482;49.154;8.254;2023-06-26T08:26:46;27.10;99.90
4934;DHT22;2482;49.154;8.254;2023-06-26T08:29:14;26.90;99.90
4934;DHT22;2482;49.154;8.254;2023-06-26T08:31:42;26.80;99.90
4934;DHT22;2482;49.154;8.254;2023-06-26T08:34:10;26.90;99.90
4934;DHT22;2482;49.154;8.254;2023-06-26T08:36:37;27.10;99.90
4934;DHT22;2482;49.154;8.254;2023-06-26T08:39:05;27.30;99.90
4934;DHT22;2482;49.154;8.254;2023-06-26T08:41:32;27.50;99.90
4934;DHT22;2482;49.154;8.254;2023-06-26T08:43:59;27.50;99.90
4934;DHT22;2482;49.154;8.254;2023-06-26T08:46:28;27.30;99.90
4934;DHT22;2482;49.154;8.254;2023-06-26T08:48:57;27.20;99.90
4934;DHT22;2482;49.154;8.254;2023-06-26T08:51:29;27.50;99.90
4934;DHT22;2482;49.154;8.254;2023-06-26T08:53:58;27.90;99.90
4934;DHT22;2482;49.154;8.254;2023-06-26T08:56:32;28.20;99.90
4934;DHT22;2482;49.154;8.254;2023-06-26T08:59:04;28.40;99.90
4934;DHT22;2482;49.154;8.254;2023-06-26T09:01:31;28.50;99.90
4934;DHT22;2482;49.154;8.254;2023-06-26T09:03:59;28.70;99.90
4934;DHT22;2482;49.154;8.254;2023-06-26T09:06:26;29.10;99.90
4934;DHT22;2482;49.154;8.254;2023-06-26T09:08:53;29.20;99.90
4934;DHT22;2482;49.154;8.254;2023-06-26T09:11:21;29.30;99.90
4934;DHT22;2482;49.154;8.254;2023-06-26T09:13:49;28.60;99.90
4934;DHT22;2482;49.154;8.254;2023-06-26T09:16:15;28.10;99.90
4934;DHT22;2482;49.154;8.254;2023-06-26T09:18:46;28.00;99.90
4934;DHT22;2482;49.154;8.254;2023-06-26T09:21:14;28.20;99.90
4934;DHT22;2482;49.154;8.254;2023-06-26T09:23:41;28.20;99.90
4934;DHT22;2482;49.154;8.254;2023-06-26T09:26:08;28.20;99.90
4934;DHT22;2482;49.154;8.254;2023-06-26T09:28:35;27.90;99.90
4934;DHT22;2482;49.154;8.254;2023-06-26T09:31:04;28.00;99.90
4934;DHT22;2482;49.154;8.254;2023-06-26T09:33:35;28.50;99.90
4934;DHT22;2482;49.154;8.254;2023-06-26T09:36:17;28.70;99.90
4934;DHT22;2482;49.154;8.254;2023-06-26T09:38:47;29.00;99.90
4934;DHT22;2482;49.154;8.254;2023-06-26T09:41:17;28.80;99.90
4934;DHT22;2482;49.154;8.254;2023-06-26T09:43:48;28.50;99.90
4934;DHT22;2482;49.154;8.254;2023-06-26T09:46:17;28.40;99.90
4934;DHT22;2482;49.154;8.254;2023-06-26T09:51:35;28.80;99.90
4934;DHT22;2482;49.154;8.254;2023-06-26T09:54:04;28.90;99.90
4934;DHT22;2482;49.154;8.254;2023-06-26T09:56:32;29.40;99.90
4934;DHT22;2482;49.154;8.254;2023-06-26T09:59:02;29.50;99.90
4934;DHT22;2482;49.154;8.254;2023-06-26T10:01:31;29.90;99.90
4934;DHT22;2482;49.154;8.254;2023-06-26T10:03:59;30.00;99.90
4934;DHT22;2482;49.154;8.254;2023-06-26T10:09:03;30.00;99.90
4934;DHT22;2482;49.154;8.254;2023-06-26T10:11:39;30.30;99.90
4934;DHT22;2482;49.154;8.254;2023-06-26T10:14:09;29.70;99.90
4934;DHT22;2482;49.154;8.254;2023-06-26T10:16:44;29.30;99.90
4934;DHT22;2482;49.154;8.254;2023-06-26T10:19:13;29.60;99.90
4934;DHT22;2482;49.154;8.254;2023-06-26T10:21:41;29.60;99.90
4934;DHT22;2482;49.154;8.254;2023-06-26T10:24:10;29.90;99.90
4934;DHT22;2482;49.154;8.254;2023-06-26T10:26:42;30.20;99.90
4934;DHT22;2482;49.154;8.254;2023-06-26T10:29:12;30.50;99.90
4934;DHT22;2482;49.154;8.254;2023-06-26T10:31:42;30.40;99.90
4934;DHT22;2482;49.154;8.254;2023-06-26T10:34:12;30.30;99.90
4934;DHT22;2482;49.154;8.254;2023-06-26T10:36:41;30.30;99.90
4934;DHT22;2482;49.154;8.254;2023-06-26T10:39:08;30.40;99.90
4934;DHT22;2482;49.154;8.254;2023-06-26T10:41:42;30.30;99.90
4934;DHT22;2482;49.154;8.254;2023-06-26T10:44:26;30.30;99.90
4934;DHT22;2482;49.154;8.254;2023-06-26T10:46:54;30.50;99.90
4934;DHT22;2482;49.154;8.254;2023-06-26T10:49:28;30.40;99.90
4934;DHT22;2482;49.154;8.254;2023-06-26T10:52:01;30.40;99.90
4934;DHT22;2482;49.154;8.254;2023-06-26T10:54:32;30.70;99.90
4934;DHT22;2482;49.154;8.254;2023-06-26T10:57:01;31.00;99.90
4934;DHT22;2482;49.154;8.254;2023-06-26T10:59:30;30.90;99.90
4934;DHT22;2482;49.154;8.254;2023-06-26T11:02:07;31.00;99.90
4934;DHT22;2482;49.154;8.254;2023-06-26T11:04:38;30.90;99.90
4934;DHT22;2482;49.154;8.254;2023-06-26T11:07:22;30.70;99.90
4934;DHT22;2482;49.154;8.254;2023-06-26T11:10:17;30.50;99.90
4934;DHT22;2482;49.154;8.254;2023-06-26T11:12:44;30.40;99.90
4934;DHT22;2482;49.154;8.254;2023-06-26T11:15:16;30.80;99.90
4934;DHT22;2482;49.154;8.254;2023-06-26T11:17:45;30.70;99.90
4934;DHT22;2482;49.154;8.254;2023-06-26T11:20:13;31.00;99.90
4934;DHT22;2482;49.154;8.254;2023-06-26T11:22:43;31.40;99.90
4934;DHT22;2482;49.154;8.254;2023-06-26T11:25:10;31.30;99.90
4934;DHT22;2482;49.154;8.254;2023-06-26T11:30:10;30.60;99.90
4934;DHT22;2482;49.154;8.254;2023-06-26T11:32:39;30.70;99.40
4934;DHT22;2482;49.154;8.254;2023-06-26T11:35:06;31.20;99.00
4934;DHT22;2482;49.154;8.254;2023-06-26T11:37:34;31.10;98.60
4934;DHT22;2482;49.154;8.254;2023-06-26T11:40:19;30.70;97.90
4934;DHT22;2482;49.154;8.254;2023-06-26T11:42:46;30.30;97.30
4934;DHT22;2482;49.154;8.254;2023-06-26T11:45:14;29.90;97.00
4934;DHT22;2482;49.154;8.254;2023-06-26T11:47:41;30.10;97.40
4934;DHT22;2482;49.154;8.254;2023-06-26T11:50:15;30.50;97.30
4934;DHT22;2482;49.154;8.254;2023-06-26T11:52:44;30.60;97.40
4934;DHT22;2482;49.154;8.254;2023-06-26T11:55:12;30.70;97.40
4934;DHT22;2482;49.154;8.254;2023-06-26T11:57:39;31.00;97.20
4934;DHT22;2482;49.154;8.254;2023-06-26T12:00:13;31.00;95.30
4934;DHT22;2482;49.154;8.254;2023-06-26T12:02:41;31.00;95.30
4934;DHT22;2482;49.154;8.254;2023-06-26T12:05:09;31.00;96.00
4934;DHT22;2482;49.154;8.254;2023-06-26T12:07:37;31.20;95.30
4934;DHT22;2482;49.154;8.254;2023-06-26T12:10:05;31.40;95.40
4934;DHT22;2482;49.154;8.254;2023-06-26T12:12:33;31.40;94.70
4934;DHT22;2482;49.154;8.254;2023-06-26T12:15:01;31.30;95.50
4934;DHT22;2482;49.154;8.254;2023-06-26T12:17:28;31.10;94.80
4934;DHT22;2482;49.154;8.254;2023-06-26T12:19:55;31.40;95.50
4934;DHT22;2482;49.154;8.254;2023-06-26T12:22:22;31.40;94.50
4934;DHT22;2482;49.154;8.254;2023-06-26T12:24:49;31.50;93.30
4934;DHT22;2482;49.154;8.254;2023-06-26T12:27:18;31.20;93.50
4934;DHT22;2482;49.154;8.254;2023-06-26T12:29:54;31.20;93.50
4934;DHT22;2482;49.154;8.254;2023-06-26T12:32:25;31.10;93.50
4934;DHT22;2482;49.154;8.254;2023-06-26T12:34:56;30.90;93.10
4934;DHT22;2482;49.154;8.254;2023-06-26T12:37:24;30.60;92.30
4934;DHT22;2482;49.154;8.254;2023-06-26T12:39:55;30.40;92.60
4934;DHT22;2482;49.154;8.254;2023-06-26T12:42:26;30.60;92.80
4934;DHT22;2482;49.154;8.254;2023-06-26T12:44:54;30.30;92.20
4934;DHT22;2482;49.154;8.254;2023-06-26T12:47:25;30.70;91.80
4934;DHT22;2482;49.154;8.254;2023-06-26T12:49:54;30.70;92.80
4934;DHT22;2482;49.154;8.254;2023-06-26T12:52:21;31.00;92.60
4934;DHT22;2482;49.154;8.254;2023-06-26T12:54:53;31.30;91.90
4934;DHT22;2482;49.154;8.254;2023-06-26T12:57:22;31.30;92.40
4934;DHT22;2482;49.154;8.254;2023-06-26T12:59:50;31.20;92.40
4934;DHT22;2482;49.154;8.254;2023-06-26T13:02:17;31.40;92.50
4934;DHT22;2482;49.154;8.254;2023-06-26T13:04:44;31.70;92.50
4934;DHT22;2482;49.154;8.254;2023-06-26T13:07:12;31.10;91.30
4934;DHT22;2482;49.154;8.254;2023-06-26T13:09:39;31.30;92.50
4934;DHT22;2482;49.154;8.254;2023-06-26T13:12:07;31.50;91.90
4934;DHT22;2482;49.154;8.254;2023-06-26T13:14:35;31.40;91.40
4934;DHT22;2482;49.154;8.254;2023-06-26T13:17:02;31.10;90.50
4934;DHT22;2482;49.154;8.254;2023-06-26T13:19:32;30.30;91.20
4934;DHT22;2482;49.154;8.254;2023-06-26T13:21:59;30.40;91.10
4934;DHT22;2482;49.154;8.254;2023-06-26T13:24:27;30.40;91.00
4934;DHT22;2482;49.154;8.254;2023-06-26T13:26:54;30.30;90.60
4934;DHT22;2482;49.154;8.254;2023-06-26T13:29:20;30.20;90.40
4934;DHT22;2482;49.154;8.254;2023-06-26T13:31:48;30.10;90.30
4934;DHT22;2482;49.154;8.254;2023-06-26T13:34:22;30.00;89.00
4934;DHT22;2482;49.154;8.254;2023-06-26T13:36:50;30.10;88.30
4934;DHT22;2482;49.154;8.254;2023-06-26T13:39:17;29.90;89.10
4934;DHT22;2482;49.154;8.254;2023-06-26T13:41:45;29.90;89.40
4934;DHT22;2482;49.154;8.254;2023-06-26T13:44:12;29.60;89.40
4934;DHT22;2482;49.154;8.254;2023-06-26T13:46:59;29.60;90.10
4934;DHT22;2482;49.154;8.254;2023-06-26T13:49:26;30.00;87.90
4934;DHT22;2482;49.154;8.254;2023-06-26T13:51:53;30.30;88.50
4934;DHT22;2482;49.154;8.254;2023-06-26T13:54:20;30.50;88.20
4934;DHT22;2482;49.154;8.254;2023-06-26T13:56:47;30.50;88.20
4934;DHT22;2482;49.154;8.254;2023-06-26T13:59:14;30.40;82.90
4934;DHT22;2482;49.154;8.254;2023-06-26T14:01:41;29.80;82.70
4934;DHT22;2482;49.154;8.254;2023-06-26T14:04:11;29.60;82.40
4934;DHT22;2482;49.154;8.254;2023-06-26T14:06:38;29.80;80.60
4934;DHT22;2482;49.154;8.254;2023-06-26T14:09:05;30.00;81.80
4934;DHT22;2482;49.154;8.254;2023-06-26T14:11:33;29.90;81.10
4934;DHT22;2482;49.154;8.254;2023-06-26T14:14:02;29.80;82.60
4934;DHT22;2482;49.154;8.254;2023-06-26T14:16:29;30.10;81.40
4934;DHT22;2482;49.154;8.254;2023-06-26T14:18:56;30.20;81.40
4934;DHT22;2482;49.154;8.254;2023-06-26T14:21:24;30.40;78.50
4934;DHT22;2482;49.154;8.254;2023-06-26T14:23:51;30.30;79.00
4934;DHT22;2482;49.154;8.254;2023-06-26T14:26:18;30.50;78.80
4934;DHT22;2482;49.154;8.254;2023-06-26T14:28:45;30.80;77.80
4934;DHT22;2482;49.154;8.254;2023-06-26T14:31:12;30.50;73.80
4934;DHT22;2482;49.154;8.254;2023-06-26T14:33:39;30.00;72.30
4934;DHT22;2482;49.154;8.254;2023-06-26T14:36:06;29.50;71.00
4934;DHT22;2482;49.154;8.254;2023-06-26T14:38:33;29.70;71.80
4934;DHT22;2482;49.154;8.254;2023-06-26T14:41:00;29.80;69.90
4934;DHT22;2482;49.154;8.254;2023-06-26T14:43:28;29.50;67.20
4934;DHT22;2482;49.154;8.254;2023-06-26T14:45:55;29.30;65.80
4934;DHT22;2482;49.154;8.254;2023-06-26T14:48:23;29.20;66.60
4934;DHT22;2482;49.154;8.254;2023-06-26T14:50:50;29.00;64.00
4934;DHT22;2482;49.154;8.254;2023-06-26T14:53:17;28.90;65.40
4934;DHT22;2482;49.154;8.254;2023-06-26T14:55:44;28.80;65.60
4934;DHT22;2482;49.154;8.254;2023-06-26T14:58:11;28.70;68.80
4934;DHT22;2482;49.154;8.254;2023-06-26T15:00:38;29.00;70.10
4934;DHT22;2482;49.154;8.254;2023-06-26T15:03:06;28.80;68.90
4934;DHT22;2482;49.154;8.254;2023-06-26T15:05:33;28.80;70.90
4934;DHT22;2482;49.154;8.254;2023-06-26T15:08:00;29.00;69.30
4934;DHT22;2482;49.154;8.254;2023-06-26T15:10:27;29.10;68.20
4934;DHT22;2482;49.154;8.254;2023-06-26T15:12:56;28.90;67.70
4934;DHT22;2482;49.154;8.254;2023-06-26T15:15:24;28.80;66.40
4934;DHT22;2482;49.154;8.254;2023-06-26T15:17:51;28.90;67.80
4934;DHT22;2482;49.154;8.254;2023-06-26T15:20:18;29.20;69.80
4934;DHT22;2482;49.154;8.254;2023-06-26T15:22:45;29.70;70.10
4934;DHT22;2482;49.154;8.254;2023-06-26T15:25:12;29.60;67.50
4934;DHT22;2482;49.154;8.254;2023-06-26T15:27:39;29.60;67.50
4934;DHT22;2482;49.154;8.254;2023-06-26T15:30:06;29.00;67.20
4934;DHT22;2482;49.154;8.254;2023-06-26T15:32:34;28.80;67.00
4934;DHT22;2482;49.154;8.254;2023-06-26T15:35:01;28.50;68.50
4934;DHT22;2482;49.154;8.254;2023-06-26T15:37:28;28.60;65.00
4934;DHT22;2482;49.154;8.254;2023-06-26T15:39:55;28.70;65.60
4934;DHT22;2482;49.154;8.254;2023-06-26T15:42:26;28.50;66.20
4934;DHT22;2482;49.154;8.254;2023-06-26T15:44:55;28.60;67.40
4934;DHT22;2482;49.154;8.254;2023-06-26T15:47:22;28.60;65.60
4934;DHT22;2482;49.154;8.254;2023-06-26T15:49:49;28.50;66.90
4934;DHT22;2482;49.154;8.254;2023-06-26T15:52:16;28.50;68.70
4934;DHT22;2482;49.154;8.254;2023-06-26T15:54:43;28.50;68.70
4934;DHT22;2482;49.154;8.254;2023-06-26T15:57:10;28.40;70.30
4934;DHT22;2482;49.154;8.254;2023-06-26T15:59:37;28.20;67.70
4934;DHT22;2482;49.154;8.254;2023-06-26T16:02:04;28.20;69.10
4934;DHT22;2482;49.154;8.254;2023-06-26T16:04:32;28.40;69.50
4934;DHT22;2482;49.154;8.254;2023-06-26T16:06:59;28.50;67.80
4934;DHT22;2482;49.154;8.254;2023-06-26T16:09:26;28.20;67.80
4934;DHT22;2482;49.154;8.254;2023-06-26T16:11:53;28.10;69.90
4934;DHT22;2482;49.154;8.254;2023-06-26T16:14:20;28.50;69.30
4934;DHT22;2482;49.154;8.254;2023-06-26T16:16:47;28.40;67.80
4934;DHT22;2482;49.154;8.254;2023-06-26T16:19:14;28.50;67.60
4934;DHT22;2482;49.154;8.254;2023-06-26T16:21:42;28.40;67.90
4934;DHT22;2482;49.154;8.254;2023-06-26T16:24:09;28.50;70.90
4934;DHT22;2482;49.154;8.254;2023-06-26T16:26:35;28.50;67.20